sensor_id;sensor_type;location;lat;lon;timestamp;temperature;humidity
44671;DHT22;48397;53.016;-2.260;2022-07-23T00:00:32;16.50;99.90
44671;DHT22;48397;53.016;-2.260;2022-07-23T00:03:06;16.50;99.90
44671;DHT22;48397;53.016;-2.260;2022-07-23T00:05:33;16.40;99.90
44671;DHT22;48397;53.016;-2.260;2022-07-23T00:08:01;16.50;99.90
44671;DHT22;48397;53.016;-2.260;2022-07-23T00:10:29;16.50;99.90
44671;DHT22;48397;53.016;-2.260;2022-07-23T00:12:57;16.50;99.90
44671;DHT22;48397;53.016;-2.260;2022-07-23T00:15:25;16.50;99.90
44671;DHT22;48397;53.016;-2.260;2022-07-23T00:17:53;16.50;99.90
44671;DHT22;48397;53.016;-2.260;2022-07-23T00:20:20;16.50;99.90
44671;DHT22;48397;53.016;-2.260;2022-07-23T00:22:50;16.50;99.90
44671;DHT22;48397;53.016;-2.260;2022-07-23T00:25:20;16.50;99.90
44671;DHT22;48397;53.016;-2.260;2022-07-23T00:27:59;16.50;99.90
44671;DHT22;48397;53.016;-2.260;2022-07-23T00:30:28;16.50;99.90
44671;DHT22;48397;53.016;-2.260;2022-07-23T00:33:05;17.90;99.90
44671;DHT22;48397;53.016;-2.260;2022-07-23T00:35:35;16.50;99.90
44671;DHT22;48397;53.016;-2.260;2022-07-23T00:38:04;16.50;99.90
44671;DHT22;48397;53.016;-2.260;2022-07-23T00:40:33;16.50;99.90
44671;DHT22;48397;53.016;-2.260;2022-07-23T00:43:00;16.50;99.90
44671;DHT22;48397;53.016;-2.260;2022-07-23T00:45:28;16.50;99.90
44671;DHT22;48397;53.016;-2.260;2022-07-23T00:47:57;16.50;99.90
44671;DHT22;48397;53.016;-2.260;2022-07-23T00:50:28;16.50;99.90
44671;DHT22;48397;53.016;-2.260;2022-07-23T00:53:00;17.60;99.90
44671;DHT22;48397;53.016;-2.260;2022-07-23T00:55:29;15.40;99.90
44671;DHT22;48397;53.016;-2.260;2022-07-23T00:57:57;16.50;99.90
44671;DHT22;48397;53.016;-2.260;2022-07-23T01:00:25;16.50;99.90
44671;DHT22;48397;53.016;-2.260;2022-07-23T01:05:21;16.50;99.90
44671;DHT22;48397;53.016;-2.260;2022-07-23T01:10:24;16.50;99.90
44671;DHT22;48397;53.016;-2.260;2022-07-23T01:13:07;16.50;99.90
44671;DHT22;48397;53.016;-2.260;2022-07-23T01:15:37;16.50;99.90
44671;DHT22;48397;53.016;-2.260;2022-07-23T01:18:06;16.40;99.90
44671;DHT22;48397;53.016;-2.260;2022-07-23T01:20:36;16.40;99.90
44671;DHT22;48397;53.016;-2.260;2022-07-23T01:23:05;16.40;99.90
44671;DHT22;48397;53.016;-2.260;2022-07-23T01:25:33;16.50;99.90
44671;DHT22;48397;53.016;-2.260;2022-07-23T01:28:03;16.50;99.90
44671;DHT22;48397;53.016;-2.260;2022-07-23T01:30:31;16.50;99.90
44671;DHT22;48397;53.016;-2.260;2022-07-23T01:33:00;16.50;99.90
44671;DHT22;48397;53.016;-2.260;2022-07-23T01:35:28;16.50;99.90
44671;DHT22;48397;53.016;-2.260;2022-07-23T01:38:01;16.50;99.90
44671;DHT22;48397;53.016;-2.260;2022-07-23T01:40:29;16.40;99.90
44671;DHT22;48397;53.016;-2.260;2022-07-23T01:42:57;16.40;99.90
44671;DHT22;48397;53.016;-2.260;2022-07-23T01:45:27;16.30;99.90
44671;DHT22;48397;53.016;-2.260;2022-07-23T01:47:55;16.30;99.90
44671;DHT22;48397;53.016;-2.260;2022-07-23T01:50:23;16.30;99.90
44671;DHT22;48397;53.016;-2.260;2022-07-23T01:53:11;16.20;99.90
44671;DHT22;48397;53.016;-2.260;2022-07-23T01:55:41;16.10;99.90
44671;DHT22;48397;53.016;-2.260;2022-07-23T01:58:09;16.10;99.90
44671;DHT22;48397;53.016;-2.260;2022-07-23T02:00:37;16.00;99.90
44671;DHT22;48397;53.016;-2.260;2022-07-23T02:03:05;16.10;99.90
44671;DHT22;48397;53.016;-2.260;2022-07-23T02:05:37;16.00;99.90
44671;DHT22;48397;53.016;-2.260;2022-07-23T02:08:04;15.90;99.90
44671;DHT22;48397;53.016;-2.260;2022-07-23T02:10:35;15.90;99.90
44671;DHT22;48397;53.016;-2.260;2022-07-23T02:13:04;15.90;99.90
44671;DHT22;48397;53.016;-2.260;2022-07-23T02:15:32;16.00;99.90
44671;DHT22;48397;53.016;-2.260;2022-07-23T02:18:00;16.00;99.90
44671;DHT22;48397;53.016;-2.260;2022-07-23T02:20:28;16.00;99.90
44671;DHT22;48397;53.016;-2.260;2022-07-23T02:22:55;16.00;99.90
44671;DHT22;48397;53.016;-2.260;2022-07-23T02:25:23;15.90;99.90
44671;DHT22;48397;53.016;-2.260;2022-07-23T02:27:57;15.90;99.90
44671;DHT22;48397;53.016;-2.260;2022-07-23T02:30:25;15.90;99.90
44671;DHT22;48397;53.016;-2.260;2022-07-23T02:32:53;16.40;99.90
44671;DHT22;48397;53.016;-2.260;2022-07-23T02:35:21;15.80;99.90
44671;DHT22;48397;53.016;-2.260;2022-07-23T02:37:48;15.80;99.90
44671;DHT22;48397;53.016;-2.260;2022-07-23T02:40:18;15.80;99.90
44671;DHT22;48397;53.016;-2.260;2022-07-23T02:42:47;15.80;99.90
44671;DHT22;48397;53.016;-2.260;2022-07-23T02:45:15;15.90;99.90
44671;DHT22;48397;53.016;-2.260;2022-07-23T02:47:43;15.80;99.90
44671;DHT22;48397;53.016;-2.260;2022-07-23T02:50:10;15.80;99.90
44671;DHT22;48397;53.016;-2.260;2022-07-23T02:52:39;15.90;99.90
44671;DHT22;48397;53.016;-2.260;2022-07-23T02:55:07;15.80;99.90
44671;DHT22;48397;53.016;-2.260;2022-07-23T02:57:35;15.80;99.90
44671;DHT22;48397;53.016;-2.260;2022-07-23T03:00:04;15.80;99.90
44671;DHT22;48397;53.016;-2.260;2022-07-23T03:02:32;15.80;99.90
44671;DHT22;48397;53.016;-2.260;2022-07-23T03:05:00;15.90;99.90
44671;DHT22;48397;53.016;-2.260;2022-07-23T03:07:28;15.90;99.90
44671;DHT22;48397;53.016;-2.260;2022-07-23T03:09:56;15.80;99.90
44671;DHT22;48397;53.016;-2.260;2022-07-23T03:12:25;15.80;99.90
44671;DHT22;48397;53.016;-2.260;2022-07-23T03:14:55;15.70;99.90
44671;DHT22;48397;53.016;-2.260;2022-07-23T03:17:23;15.70;99.90
44671;DHT22;48397;53.016;-2.260;2022-07-23T03:19:51;15.50;99.90
44671;DHT22;48397;53.016;-2.260;2022-07-23T03:22:19;15.50;99.90
44671;DHT22;48397;53.016;-2.260;2022-07-23T03:24:47;15.40;99.90
44671;DHT22;48397;53.016;-2.260;2022-07-23T03:27:29;15.40;99.90
44671;DHT22;48397;53.016;-2.260;2022-07-23T03:29:58;15.40;99.90
44671;DHT22;48397;53.016;-2.260;2022-07-23T03:32:26;15.30;99.90
44671;DHT22;48397;53.016;-2.260;2022-07-23T03:34:55;15.30;99.90
44671;DHT22;48397;53.016;-2.260;2022-07-23T03:37:25;15.30;99.90
44671;DHT22;48397;53.016;-2.260;2022-07-23T03:39:53;15.30;99.90
44671;DHT22;48397;53.016;-2.260;2022-07-23T03:42:20;15.30;99.90
44671;DHT22;48397;53.016;-2.260;2022-07-23T03:44:48;15.30;99.90
44671;DHT22;48397;53.016;-2.260;2022-07-23T03:47:16;15.40;99.90
44671;DHT22;48397;53.016;-2.260;2022-07-23T03:49:44;15.40;99.90
44671;DHT22;48397;53.016;-2.260;2022-07-23T03:52:12;15.40;99.90
44671;DHT22;48397;53.016;-2.260;2022-07-23T03:54:40;15.40;99.90
44671;DHT22;48397;53.016;-2.260;2022-07-23T03:57:07;15.40;99.90
44671;DHT22;48397;53.016;-2.260;2022-07-23T03:59:35;15.30;99.90
44671;DHT22;48397;53.016;-2.260;2022-07-23T04:02:03;15.30;99.90
44671;DHT22;48397;53.016;-2.260;2022-07-23T04:04:31;15.30;99.90
44671;DHT22;48397;53.016;-2.260;2022-07-23T04:06:59;15.20;99.90
44671;DHT22;48397;53.016;-2.260;2022-07-23T04:11:55;15.20;99.90
44671;DHT22;48397;53.016;-2.260;2022-07-23T04:14:23;15.10;99.90
44671;DHT22;48397;53.016;-2.260;2022-07-23T04:16:51;15.10;99.90
44671;DHT22;48397;53.016;-2.260;2022-07-23T04:19:19;15.00;99.90
44671;DHT22;48397;53.016;-2.260;2022-07-23T04:21:58;18.10;99.90
44671;DHT22;48397;53.016;-2.260;2022-07-23T04:24:26;15.10;99.90
44671;DHT22;48397;53.016;-2.260;2022-07-23T04:26:54;15.10;99.90
44671;DHT22;48397;53.016;-2.260;2022-07-23T04:29:22;15.00;99.90
44671;DHT22;48397;53.016;-2.260;2022-07-23T04:31:51;15.10;99.90
44671;DHT22;48397;53.016;-2.260;2022-07-23T04:34:18;15.00;99.90
44671;DHT22;48397;53.016;-2.260;2022-07-23T04:36:46;15.00;99.90
44671;DHT22;48397;53.016;-2.260;2022-07-23T04:39:14;14.90;99.90
44671;DHT22;48397;53.016;-2.260;2022-07-23T04:41:42;14.90;99.90
44671;DHT22;48397;53.016;-2.260;2022-07-23T04:44:10;14.90;99.90
44671;DHT22;48397;53.016;-2.260;2022-07-23T04:46:38;14.90;99.90
44671;DHT22;48397;53.016;-2.260;2022-07-23T04:49:07;14.80;99.90
44671;DHT22;48397;53.016;-2.260;2022-07-23T04:51:35;14.90;99.90
44671;DHT22;48397;53.016;-2.260;2022-07-23T04:54:03;14.80;99.90
44671;DHT22;48397;53.016;-2.260;2022-07-23T04:56:31;14.80;99.90
44671;DHT22;48397;53.016;-2.260;2022-07-23T04:58:58;14.80;99.90
44671;DHT22;48397;53.016;-2.260;2022-07-23T05:01:26;14.80;99.90
44671;DHT22;48397;53.016;-2.260;2022-07-23T05:03:54;14.90;99.90
44671;DHT22;48397;53.016;-2.260;2022-07-23T05:06:26;14.90;99.90
44671;DHT22;48397;53.016;-2.260;2022-07-23T05:08:54;14.80;99.90
44671;DHT22;48397;53.016;-2.260;2022-07-23T05:11:23;14.90;99.90
44671;DHT22;48397;53.016;-2.260;2022-07-23T05:13:54;14.90;99.90
44671;DHT22;48397;53.016;-2.260;2022-07-23T05:16:22;14.90;99.90
44671;DHT22;48397;53.016;-2.260;2022-07-23T05:18:52;14.90;99.90
44671;DHT22;48397;53.016;-2.260;2022-07-23T05:21:21;14.90;99.90
44671;DHT22;48397;53.016;-2.260;2022-07-23T05:23:49;15.00;99.90
44671;DHT22;48397;53.016;-2.260;2022-07-23T05:26:16;15.00;99.90
44671;DHT22;48397;53.016;-2.260;2022-07-23T05:28:44;15.00;99.90
44671;DHT22;48397;53.016;-2.260;2022-07-23T05:31:17;15.10;99.90
44671;DHT22;48397;53.016;-2.260;2022-07-23T05:33:46;15.20;99.90
44671;DHT22;48397;53.016;-2.260;2022-07-23T05:36:14;15.20;99.90
44671;DHT22;48397;53.016;-2.260;2022-07-23T05:38:51;14.20;99.90
44671;DHT22;48397;53.016;-2.260;2022-07-23T05:41:19;15.40;99.90
44671;DHT22;48397;53.016;-2.260;2022-07-23T05:43:47;15.50;99.90
44671;DHT22;48397;53.016;-2.260;2022-07-23T05:46:15;15.50;99.90
44671;DHT22;48397;53.016;-2.260;2022-07-23T05:48:47;15.60;99.90
44671;DHT22;48397;53.016;-2.260;2022-07-23T05:51:43;15.70;99.90
44671;DHT22;48397;53.016;-2.260;2022-07-23T05:54:14;15.90;99.90
44671;DHT22;48397;53.016;-2.260;2022-07-23T05:56:42;16.00;99.90
44671;DHT22;48397;53.016;-2.260;2022-07-23T05:59:12;16.10;99.90
44671;DHT22;48397;53.016;-2.260;2022-07-23T06:01:42;16.10;99.90
44671;DHT22;48397;53.016;-2.260;2022-07-23T06:04:11;16.30;99.90
44671;DHT22;48397;53.016;-2.260;2022-07-23T06:06:45;16.30;99.90
44671;DHT22;48397;53.016;-2.260;2022-07-23T06:09:13;16.40;99.90
44671;DHT22;48397;53.016;-2.260;2022-07-23T06:11:42;16.40;99.90
44671;DHT22;48397;53.016;-2.260;2022-07-23T06:14:09;16.40;99.90
44671;DHT22;48397;53.016;-2.260;2022-07-23T06:16:50;16.40;99.90
44671;DHT22;48397;53.016;-2.260;2022-07-23T06:19:18;16.40;99.90
44671;DHT22;48397;53.016;-2.260;2022-07-23T06:21:46;16.50;99.90
44671;DHT22;48397;53.016;-2.260;2022-07-23T06:24:16;16.40;99.90
44671;DHT22;48397;53.016;-2.260;2022-07-23T06:29:12;16.40;99.90
44671;DHT22;48397;53.016;-2.260;2022-07-23T06:31:42;16.40;99.90
44671;DHT22;48397;53.016;-2.260;2022-07-23T06:34:10;16.50;99.90
44671;DHT22;48397;53.016;-2.260;2022-07-23T06:36:37;16.50;99.90
44671;DHT22;48397;53.016;-2.260;2022-07-23T06:39:06;16.60;99.90
44671;DHT22;48397;53.016;-2.260;2022-07-23T06:41:36;16.60;99.90
44671;DHT22;48397;53.016;-2.260;2022-07-23T06:44:04;16.70;99.90
44671;DHT22;48397;53.016;-2.260;2022-07-23T06:46:34;16.60;99.90
44671;DHT22;48397;53.016;-2.260;2022-07-23T06:49:02;16.60;99.90
44671;DHT22;48397;53.016;-2.260;2022-07-23T06:51:33;16.60;99.90
44671;DHT22;48397;53.016;-2.260;2022-07-23T06:54:01;16.60;99.90
44671;DHT22;48397;53.016;-2.260;2022-07-23T06:56:29;16.60;99.90
44671;DHT22;48397;53.016;-2.260;2022-07-23T06:58:57;16.80;99.90
44671;DHT22;48397;53.016;-2.260;2022-07-23T07:01:27;16.80;99.90
44671;DHT22;48397;53.016;-2.260;2022-07-23T07:03:55;17.00;99.90
44671;DHT22;48397;53.016;-2.260;2022-07-23T07:06:23;17.00;99.90
44671;DHT22;48397;53.016;-2.260;2022-07-23T07:08:51;17.20;99.90
44671;DHT22;48397;53.016;-2.260;2022-07-23T07:11:19;17.40;99.90
44671;DHT22;48397;53.016;-2.260;2022-07-23T07:16:14;17.40;99.90
44671;DHT22;48397;53.016;-2.260;2022-07-23T07:18:42;17.50;99.90
44671;DHT22;48397;53.016;-2.260;2022-07-23T07:21:10;17.40;99.90
44671;DHT22;48397;53.016;-2.260;2022-07-23T07:23:37;17.40;99.90
44671;DHT22;48397;53.016;-2.260;2022-07-23T07:26:05;17.50;99.90
44671;DHT22;48397;53.016;-2.260;2022-07-23T07:28:33;17.70;99.90
44671;DHT22;48397;53.016;-2.260;2022-07-23T07:31:00;17.90;99.90
44671;DHT22;48397;53.016;-2.260;2022-07-23T07:33:30;18.10;99.90
44671;DHT22;48397;53.016;-2.260;2022-07-23T07:35:57;18.40;99.90
44671;DHT22;48397;53.016;-2.260;2022-07-23T07:38:25;18.40;99.90
44671;DHT22;48397;53.016;-2.260;2022-07-23T07:40:53;18.40;99.90
44671;DHT22;48397;53.016;-2.260;2022-07-23T07:43:22;18.40;99.90
44671;DHT22;48397;53.016;-2.260;2022-07-23T07:45:49;18.30;99.90
44671;DHT22;48397;53.016;-2.260;2022-07-23T07:50:36;18.10;99.90
44671;DHT22;48397;53.016;-2.260;2022-07-23T07:53:04;18.20;99.90
44671;DHT22;48397;53.016;-2.260;2022-07-23T07:55:31;18.20;99.90
44671;DHT22;48397;53.016;-2.260;2022-07-23T07:57:59;18.30;99.90
44671;DHT22;48397;53.016;-2.260;2022-07-23T08:00:29;18.40;99.90
44671;DHT22;48397;53.016;-2.260;2022-07-23T08:02:56;18.60;99.90
44671;DHT22;48397;53.016;-2.260;2022-07-23T08:05:29;18.70;99.90
44671;DHT22;48397;53.016;-2.260;2022-07-23T08:07:58;18.70;99.90
44671;DHT22;48397;53.016;-2.260;2022-07-23T08:10:28;18.70;99.90
44671;DHT22;48397;53.016;-2.260;2022-07-23T08:12:56;18.70;99.90
44671;DHT22;48397;53.016;-2.260;2022-07-23T08:15:27;18.70;99.90
44671;DHT22;48397;53.016;-2.260;2022-07-23T08:17:56;18.60;99.90
44671;DHT22;48397;53.016;-2.260;2022-07-23T08:20:25;18.60;99.90
44671;DHT22;48397;53.016;-2.260;2022-07-23T08:22:57;18.60;99.90
44671;DHT22;48397;53.016;-2.260;2022-07-23T08:25:30;18.60;99.90
44671;DHT22;48397;53.016;-2.260;2022-07-23T08:28:00;18.50;99.90
44671;DHT22;48397;53.016;-2.260;2022-07-23T08:30:28;18.30;99.90
44671;DHT22;48397;53.016;-2.260;2022-07-23T08:33:07;18.30;99.90
44671;DHT22;48397;53.016;-2.260;2022-07-23T08:35:58;18.30;99.90
44671;DHT22;48397;53.016;-2.260;2022-07-23T08:38:25;18.30;99.90
44671;DHT22;48397;53.016;-2.260;2022-07-23T08:40:56;18.30;99.90
44671;DHT22;48397;53.016;-2.260;2022-07-23T08:43:29;18.30;99.90
44671;DHT22;48397;53.016;-2.260;2022-07-23T08:45:59;18.30;99.90
44671;DHT22;48397;53.016;-2.260;2022-07-23T08:48:30;18.50;99.90
44671;DHT22;48397;53.016;-2.260;2022-07-23T08:51:00;18.60;99.90
44671;DHT22;48397;53.016;-2.260;2022-07-23T08:53:30;18.80;99.90
44671;DHT22;48397;53.016;-2.260;2022-07-23T08:55:59;18.80;99.90
44671;DHT22;48397;53.016;-2.260;2022-07-23T08:58:30;19.30;99.90
44671;DHT22;48397;53.016;-2.260;2022-07-23T09:00:59;19.30;99.90
44671;DHT22;48397;53.016;-2.260;2022-07-23T09:03:32;19.60;99.90
44671;DHT22;48397;53.016;-2.260;2022-07-23T09:06:01;19.60;99.90
44671;DHT22;48397;53.016;-2.260;2022-07-23T09:08:42;19.80;99.90
44671;DHT22;48397;53.016;-2.260;2022-07-23T09:11:13;20.20;99.90
44671;DHT22;48397;53.016;-2.260;2022-07-23T09:13:54;20.70;99.90
44671;DHT22;48397;53.016;-2.260;2022-07-23T09:16:27;20.70;99.90
44671;DHT22;48397;53.016;-2.260;2022-07-23T09:19:02;21.00;99.90
44671;DHT22;48397;53.016;-2.260;2022-07-23T09:21:32;21.20;99.90
44671;DHT22;48397;53.016;-2.260;2022-07-23T09:24:04;21.30;99.90
44671;DHT22;48397;53.016;-2.260;2022-07-23T09:26:41;21.50;99.90
44671;DHT22;48397;53.016;-2.260;2022-07-23T09:29:22;21.50;99.90
44671;DHT22;48397;53.016;-2.260;2022-07-23T09:32:03;21.60;99.90
44671;DHT22;48397;53.016;-2.260;2022-07-23T09:34:36;21.50;99.90
44671;DHT22;48397;53.016;-2.260;2022-07-23T09:37:15;21.10;99.90
44671;DHT22;48397;53.016;-2.260;2022-07-23T09:39:44;21.10;99.90
44671;DHT22;48397;53.016;-2.260;2022-07-23T09:42:24;20.80;99.90
44671;DHT22;48397;53.016;-2.260;2022-07-23T09:44:53;20.70;99.90
44671;DHT22;48397;53.016;-2.260;2022-07-23T09:47:23;22.60;99.90
44671;DHT22;48397;53.016;-2.260;2022-07-23T09:50:05;20.40;99.90
44671;DHT22;48397;53.016;-2.260;2022-07-23T09:52:45;20.30;99.90
44671;DHT22;48397;53.016;-2.260;2022-07-23T09:55:17;20.20;99.90
44671;DHT22;48397;53.016;-2.260;2022-07-23T09:57:46;20.10;99.90
44671;DHT22;48397;53.016;-2.260;2022-07-23T10:00:17;20.10;99.90
44671;DHT22;48397;53.016;-2.260;2022-07-23T10:02:47;20.10;99.90
44671;DHT22;48397;53.016;-2.260;2022-07-23T10:05:29;20.10;99.90
44671;DHT22;48397;53.016;-2.260;2022-07-23T10:08:18;20.00;99.90
44671;DHT22;48397;53.016;-2.260;2022-07-23T10:10:50;19.90;99.90
44671;DHT22;48397;53.016;-2.260;2022-07-23T10:13:36;19.80;99.90
44671;DHT22;48397;53.016;-2.260;2022-07-23T10:16:32;19.90;99.90
44671;DHT22;48397;53.016;-2.260;2022-07-23T10:19:00;19.80;99.90
44671;DHT22;48397;53.016;-2.260;2022-07-23T10:21:34;19.80;99.90
44671;DHT22;48397;53.016;-2.260;2022-07-23T10:27:02;19.80;99.90
44671;DHT22;48397;53.016;-2.260;2022-07-23T10:37:42;19.80;99.90
44671;DHT22;48397;53.016;-2.260;2022-07-23T10:40:12;19.80;99.90
44671;DHT22;48397;53.016;-2.260;2022-07-23T10:42:40;19.70;99.90
44671;DHT22;48397;53.016;-2.260;2022-07-23T10:45:30;19.70;99.90
44671;DHT22;48397;53.016;-2.260;2022-07-23T10:50:44;19.50;99.90
44671;DHT22;48397;53.016;-2.260;2022-07-23T10:59:14;19.90;99.90
44671;DHT22;48397;53.016;-2.260;2022-07-23T11:01:42;19.50;99.90
44671;DHT22;48397;53.016;-2.260;2022-07-23T11:04:10;19.50;99.90
44671;DHT22;48397;53.016;-2.260;2022-07-23T11:15:00;19.40;99.90
44671;DHT22;48397;53.016;-2.260;2022-07-23T11:17:29;19.50;99.90
44671;DHT22;48397;53.016;-2.260;2022-07-23T11:25:08;19.30;99.90
44671;DHT22;48397;53.016;-2.260;2022-07-23T11:27:44;19.20;99.90
44671;DHT22;48397;53.016;-2.260;2022-07-23T11:35:43;19.40;99.90
44671;DHT22;48397;53.016;-2.260;2022-07-23T11:38:19;19.40;99.90
44671;DHT22;48397;53.016;-2.260;2022-07-23T11:40:55;19.50;99.90
44671;DHT22;48397;53.016;-2.260;2022-07-23T11:43:26;19.60;99.90
44671;DHT22;48397;53.016;-2.260;2022-07-23T11:45:59;19.70;99.90
44671;DHT22;48397;53.016;-2.260;2022-07-23T11:48:29;19.90;99.90
44671;DHT22;48397;53.016;-2.260;2022-07-23T11:50:58;19.90;99.90
44671;DHT22;48397;53.016;-2.260;2022-07-23T11:53:32;20.50;99.90
44671;DHT22;48397;53.016;-2.260;2022-07-23T11:56:11;20.90;99.90
44671;DHT22;48397;53.016;-2.260;2022-07-23T11:58:39;21.00;99.90
44671;DHT22;48397;53.016;-2.260;2022-07-23T12:01:21;21.30;99.90
44671;DHT22;48397;53.016;-2.260;2022-07-23T12:03:52;21.50;99.90
44671;DHT22;48397;53.016;-2.260;2022-07-23T12:06:20;21.60;99.90
44671;DHT22;48397;53.016;-2.260;2022-07-23T12:08:47;21.90;99.90
44671;DHT22;48397;53.016;-2.260;2022-07-23T12:11:15;22.10;99.90
44671;DHT22;48397;53.016;-2.260;2022-07-23T12:13:42;22.30;99.90
44671;DHT22;48397;53.016;-2.260;2022-07-23T12:16:10;19.40;99.90
44671;DHT22;48397;53.016;-2.260;2022-07-23T12:18:38;22.40;99.90
44671;DHT22;48397;53.016;-2.260;2022-07-23T12:21:06;22.30;99.90
44671;DHT22;48397;53.016;-2.260;2022-07-23T12:23:34;22.20;99.90
44671;DHT22;48397;53.016;-2.260;2022-07-23T12:26:05;22.00;99.90
44671;DHT22;48397;53.016;-2.260;2022-07-23T12:28:34;21.80;99.90
44671;DHT22;48397;53.016;-2.260;2022-07-23T12:31:05;21.60;99.90
44671;DHT22;48397;53.016;-2.260;2022-07-23T12:33:39;21.40;99.90
44671;DHT22;48397;53.016;-2.260;2022-07-23T12:36:08;21.40;99.90
44671;DHT22;48397;53.016;-2.260;2022-07-23T12:38:46;21.40;99.90
44671;DHT22;48397;53.016;-2.260;2022-07-23T12:41:15;21.40;99.90
44671;DHT22;48397;53.016;-2.260;2022-07-23T12:43:44;21.50;99.90
44671;DHT22;48397;53.016;-2.260;2022-07-23T12:46:21;21.60;99.90
44671;DHT22;48397;53.016;-2.260;2022-07-23T12:51:30;21.50;99.90
44671;DHT22;48397;53.016;-2.260;2022-07-23T12:54:08;21.40;99.90
44671;DHT22;48397;53.016;-2.260;2022-07-23T12:56:38;21.20;99.90
44671;DHT22;48397;53.016;-2.260;2022-07-23T12:59:08;21.30;99.90
44671;DHT22;48397;53.016;-2.260;2022-07-23T13:01:55;21.30;99.90
44671;DHT22;48397;53.016;-2.260;2022-07-23T13:04:25;21.30;99.90
44671;DHT22;48397;53.016;-2.260;2022-07-23T13:06:59;21.40;99.90
44671;DHT22;48397;53.016;-2.260;2022-07-23T13:09:31;21.50;99.90
44671;DHT22;48397;53.016;-2.260;2022-07-23T13:12:08;21.70;99.90
44671;DHT22;48397;53.016;-2.260;2022-07-23T13:14:38;21.90;99.90
44671;DHT22;48397;53.016;-2.260;2022-07-23T13:17:06;21.90;99.90
44671;DHT22;48397;53.016;-2.260;2022-07-23T13:23:16;22.30;99.90
44671;DHT22;48397;53.016;-2.260;2022-07-23T13:25:45;22.40;99.90
44671;DHT22;48397;53.016;-2.260;2022-07-23T13:28:14;22.40;99.90
44671;DHT22;48397;53.016;-2.260;2022-07-23T13:30:43;22.40;99.90
44671;DHT22;48397;53.016;-2.260;2022-07-23T13:33:11;22.30;99.90
44671;DHT22;48397;53.016;-2.260;2022-07-23T13:35:39;22.30;99.90
44671;DHT22;48397;53.016;-2.260;2022-07-23T13:38:07;22.20;99.90
44671;DHT22;48397;53.016;-2.260;2022-07-23T13:40:42;22.20;99.90
44671;DHT22;48397;53.016;-2.260;2022-07-23T13:43:11;22.30;99.90
44671;DHT22;48397;53.016;-2.260;2022-07-23T13:45:41;22.40;99.90
44671;DHT22;48397;53.016;-2.260;2022-07-23T13:48:15;22.40;99.90
44671;DHT22;48397;53.016;-2.260;2022-07-23T13:50:45;22.30;99.90
44671;DHT22;48397;53.016;-2.260;2022-07-23T13:53:16;22.10;99.90
44671;DHT22;48397;53.016;-2.260;2022-07-23T13:55:45;22.10;99.90
44671;DHT22;48397;53.016;-2.260;2022-07-23T13:58:16;22.00;99.90
44671;DHT22;48397;53.016;-2.260;2022-07-23T14:00:47;21.80;99.90
44671;DHT22;48397;53.016;-2.260;2022-07-23T14:03:21;21.60;99.90
44671;DHT22;48397;53.016;-2.260;2022-07-23T14:05:52;21.60;99.90
44671;DHT22;48397;53.016;-2.260;2022-07-23T14:08:24;21.60;99.90
44671;DHT22;48397;53.016;-2.260;2022-07-23T14:10:51;21.30;99.90
44671;DHT22;48397;53.016;-2.260;2022-07-23T14:13:19;21.30;99.90
44671;DHT22;48397;53.016;-2.260;2022-07-23T14:15:48;20.90;99.90
44671;DHT22;48397;53.016;-2.260;2022-07-23T14:18:17;20.90;99.90
44671;DHT22;48397;53.016;-2.260;2022-07-23T14:20:45;20.90;99.90
44671;DHT22;48397;53.016;-2.260;2022-07-23T14:23:12;20.90;99.90
44671;DHT22;48397;53.016;-2.260;2022-07-23T14:25:41;20.80;99.90
44671;DHT22;48397;53.016;-2.260;2022-07-23T14:28:10;20.80;99.90
44671;DHT22;48397;53.016;-2.260;2022-07-23T14:30:39;20.80;99.90
44671;DHT22;48397;53.016;-2.260;2022-07-23T14:33:08;20.70;99.90
44671;DHT22;48397;53.016;-2.260;2022-07-23T14:35:38;20.80;99.90
44671;DHT22;48397;53.016;-2.260;2022-07-23T14:38:06;20.90;99.90
44671;DHT22;48397;53.016;-2.260;2022-07-23T14:40:34;20.90;99.90
44671;DHT22;48397;53.016;-2.260;2022-07-23T14:43:02;21.20;99.90
44671;DHT22;48397;53.016;-2.260;2022-07-23T14:45:30;21.50;99.90
44671;DHT22;48397;53.016;-2.260;2022-07-23T14:47:57;21.50;99.90
44671;DHT22;48397;53.016;-2.260;2022-07-23T14:50:26;21.70;99.90
44671;DHT22;48397;53.016;-2.260;2022-07-23T14:52:53;21.70;99.90
44671;DHT22;48397;53.016;-2.260;2022-07-23T14:55:21;21.80;99.90
44671;DHT22;48397;53.016;-2.260;2022-07-23T14:57:49;21.70;99.90
44671;DHT22;48397;53.016;-2.260;2022-07-23T15:00:16;21.70;99.90
44671;DHT22;48397;53.016;-2.260;2022-07-23T15:02:53;21.70;99.90
44671;DHT22;48397;53.016;-2.260;2022-07-23T15:05:23;21.80;99.90
44671;DHT22;48397;53.016;-2.260;2022-07-23T15:07:52;21.70;99.90
44671;DHT22;48397;53.016;-2.260;2022-07-23T15:10:19;21.70;99.90
44671;DHT22;48397;53.016;-2.260;2022-07-23T15:12:49;21.80;99.90
44671;DHT22;48397;53.016;-2.260;2022-07-23T15:15:17;22.00;99.90
44671;DHT22;48397;53.016;-2.260;2022-07-23T15:17:45;22.10;99.90
44671;DHT22;48397;53.016;-2.260;2022-07-23T15:20:16;22.30;99.90
44671;DHT22;48397;53.016;-2.260;2022-07-23T15:23:03;22.30;99.90
44671;DHT22;48397;53.016;-2.260;2022-07-23T15:25:35;22.30;99.90
44671;DHT22;48397;53.016;-2.260;2022-07-23T15:28:04;22.20;99.90
44671;DHT22;48397;53.016;-2.260;2022-07-23T15:30:35;22.20;99.90
44671;DHT22;48397;53.016;-2.260;2022-07-23T15:33:05;22.10;99.90
44671;DHT22;48397;53.016;-2.260;2022-07-23T15:35:33;22.10;99.90
44671;DHT22;48397;53.016;-2.260;2022-07-23T15:38:01;22.00;99.90
44671;DHT22;48397;53.016;-2.260;2022-07-23T15:40:39;21.80;99.90
44671;DHT22;48397;53.016;-2.260;2022-07-23T15:43:07;21.80;99.90
44671;DHT22;48397;53.016;-2.260;2022-07-23T15:45:39;21.80;99.90
44671;DHT22;48397;53.016;-2.260;2022-07-23T15:48:07;21.70;99.90
44671;DHT22;48397;53.016;-2.260;2022-07-23T15:50:35;21.70;99.90
44671;DHT22;48397;53.016;-2.260;2022-07-23T15:53:02;21.60;99.90
44671;DHT22;48397;53.016;-2.260;2022-07-23T15:55:30;21.50;99.90
44671;DHT22;48397;53.016;-2.260;2022-07-23T15:57:58;21.50;99.90
44671;DHT22;48397;53.016;-2.260;2022-07-23T16:00:25;21.50;99.90
44671;DHT22;48397;53.016;-2.260;2022-07-23T16:02:53;21.50;99.90
44671;DHT22;48397;53.016;-2.260;2022-07-23T16:05:20;21.60;99.90
44671;DHT22;48397;53.016;-2.260;2022-07-23T16:07:48;21.60;99.90
44671;DHT22;48397;53.016;-2.260;2022-07-23T16:10:16;21.70;99.90
44671;DHT22;48397;53.016;-2.260;2022-07-23T16:12:44;21.80;99.90
44671;DHT22;48397;53.016;-2.260;2022-07-23T16:15:11;22.00;99.90
44671;DHT22;48397;53.016;-2.260;2022-07-23T16:17:39;22.00;99.90
44671;DHT22;48397;53.016;-2.260;2022-07-23T16:20:07;22.00;99.90
44671;DHT22;48397;53.016;-2.260;2022-07-23T16:22:35;22.10;99.90
44671;DHT22;48397;53.016;-2.260;2022-07-23T16:25:04;22.10;99.90
44671;DHT22;48397;53.016;-2.260;2022-07-23T16:27:34;22.20;99.90
44671;DHT22;48397;53.016;-2.260;2022-07-23T16:30:02;22.30;99.90
44671;DHT22;48397;53.016;-2.260;2022-07-23T16:32:30;22.20;99.90